sensor_id;sensor_type;location;lat;lon;timestamp;temperature;humidity
23520;DHT22;11936;50.820;4.336;2022-11-15T00:00:26;12.40;99.90
23520;DHT22;11936;50.820;4.336;2022-11-15T00:02:53;12.40;99.90
23520;DHT22;11936;50.820;4.336;2022-11-15T00:05:18;12.40;99.90
23520;DHT22;11936;50.820;4.336;2022-11-15T00:07:44;12.50;99.90
23520;DHT22;11936;50.820;4.336;2022-11-15T00:10:11;12.50;99.90
23520;DHT22;11936;50.820;4.336;2022-11-15T00:12:36;12.50;99.90
23520;DHT22;11936;50.820;4.336;2022-11-15T00:15:02;12.60;99.90
23520;DHT22;11936;50.820;4.336;2022-11-15T00:17:28;12.50;99.90
23520;DHT22;11936;50.820;4.336;2022-11-15T00:19:53;12.40;99.90
23520;DHT22;11936;50.820;4.336;2022-11-15T00:22:19;12.50;99.90
23520;DHT22;11936;50.820;4.336;2022-11-15T00:24:45;12.40;99.90
23520;DHT22;11936;50.820;4.336;2022-11-15T00:27:10;12.30;99.90
23520;DHT22;11936;50.820;4.336;2022-11-15T00:29:36;12.30;99.90
23520;DHT22;11936;50.820;4.336;2022-11-15T00:32:04;12.30;99.90
23520;DHT22;11936;50.820;4.336;2022-11-15T00:34:29;12.30;99.90
23520;DHT22;11936;50.820;4.336;2022-11-15T00:36:55;12.30;99.90
23520;DHT22;11936;50.820;4.336;2022-11-15T00:39:21;12.30;99.90
23520;DHT22;11936;50.820;4.336;2022-11-15T00:41:46;12.20;99.90
23520;DHT22;11936;50.820;4.336;2022-11-15T00:44:12;12.30;99.90
23520;DHT22;11936;50.820;4.336;2022-11-15T00:46:37;12.30;99.90
23520;DHT22;11936;50.820;4.336;2022-11-15T00:49:03;12.40;99.90
23520;DHT22;11936;50.820;4.336;2022-11-15T00:51:29;12.40;99.90
23520;DHT22;11936;50.820;4.336;2022-11-15T00:53:55;12.50;99.90
23520;DHT22;11936;50.820;4.336;2022-11-15T00:56:20;12.50;99.90
23520;DHT22;11936;50.820;4.336;2022-11-15T00:58:46;12.40;99.90
23520;DHT22;11936;50.820;4.336;2022-11-15T01:01:13;12.50;99.90
23520;DHT22;11936;50.820;4.336;2022-11-15T01:03:40;12.50;99.90
23520;DHT22;11936;50.820;4.336;2022-11-15T01:06:07;12.40;99.90
23520;DHT22;11936;50.820;4.336;2022-11-15T01:08:33;12.40;99.90
23520;DHT22;11936;50.820;4.336;2022-11-15T01:11:08;12.50;99.90
23520;DHT22;11936;50.820;4.336;2022-11-15T01:13:35;12.40;99.90
23520;DHT22;11936;50.820;4.336;2022-11-15T01:16:13;12.50;99.90
23520;DHT22;11936;50.820;4.336;2022-11-15T01:18:40;12.60;99.90
23520;DHT22;11936;50.820;4.336;2022-11-15T01:21:11;12.60;99.90
23520;DHT22;11936;50.820;4.336;2022-11-15T01:23:38;12.70;99.90
23520;DHT22;11936;50.820;4.336;2022-11-15T01:26:06;12.60;99.90
23520;DHT22;11936;50.820;4.336;2022-11-15T01:28:33;12.60;99.90
23520;DHT22;11936;50.820;4.336;2022-11-15T01:31:01;12.60;99.90
23520;DHT22;11936;50.820;4.336;2022-11-15T01:33:28;12.70;99.90
23520;DHT22;11936;50.820;4.336;2022-11-15T01:35:54;12.70;99.90
23520;DHT22;11936;50.820;4.336;2022-11-15T01:38:20;12.60;99.90
23520;DHT22;11936;50.820;4.336;2022-11-15T01:40:45;12.70;99.90
23520;DHT22;11936;50.820;4.336;2022-11-15T01:43:31;12.70;99.90
23520;DHT22;11936;50.820;4.336;2022-11-15T01:46:33;12.60;99.90
23520;DHT22;11936;50.820;4.336;2022-11-15T01:49:03;12.60;99.90
23520;DHT22;11936;50.820;4.336;2022-11-15T01:51:32;12.60;99.90
23520;DHT22;11936;50.820;4.336;2022-11-15T01:54:02;12.70;99.90
23520;DHT22;11936;50.820;4.336;2022-11-15T01:56:32;12.60;99.90
23520;DHT22;11936;50.820;4.336;2022-11-15T01:59:03;12.70;99.90
23520;DHT22;11936;50.820;4.336;2022-11-15T02:01:31;12.70;99.90
23520;DHT22;11936;50.820;4.336;2022-11-15T02:04:01;12.60;99.90
23520;DHT22;11936;50.820;4.336;2022-11-15T02:06:27;12.60;99.90
23520;DHT22;11936;50.820;4.336;2022-11-15T02:08:53;12.50;99.90
23520;DHT22;11936;50.820;4.336;2022-11-15T02:11:20;12.40;99.90
23520;DHT22;11936;50.820;4.336;2022-11-15T02:13:45;12.50;99.90
23520;DHT22;11936;50.820;4.336;2022-11-15T02:24:44;12.70;99.90
23520;DHT22;11936;50.820;4.336;2022-11-15T02:35:58;12.70;99.90
23520;DHT22;11936;50.820;4.336;2022-11-15T02:38:38;12.60;99.90
23520;DHT22;11936;50.820;4.336;2022-11-15T02:42:14;12.70;99.90
23520;DHT22;11936;50.820;4.336;2022-11-15T02:44:30;12.60;99.90
23520;DHT22;11936;50.820;4.336;2022-11-15T02:47:09;12.60;99.90
23520;DHT22;11936;50.820;4.336;2022-11-15T02:49:42;12.60;99.90
23520;DHT22;11936;50.820;4.336;2022-11-15T02:52:09;12.50;99.90
23520;DHT22;11936;50.820;4.336;2022-11-15T02:54:35;12.60;99.90
23520;DHT22;11936;50.820;4.336;2022-11-15T02:57:05;12.60;99.90
23520;DHT22;11936;50.820;4.336;2022-11-15T03:05:30;12.70;99.90
23520;DHT22;11936;50.820;4.336;2022-11-15T03:08:06;12.60;99.90
23520;DHT22;11936;50.820;4.336;2022-11-15T03:16:07;12.50;99.90
23520;DHT22;11936;50.820;4.336;2022-11-15T03:18:37;12.60;99.90
23520;DHT22;11936;50.820;4.336;2022-11-15T03:21:06;12.50;99.90
23520;DHT22;11936;50.820;4.336;2022-11-15T03:23:33;12.50;99.90
23520;DHT22;11936;50.820;4.336;2022-11-15T03:26:00;12.30;99.90
23520;DHT22;11936;50.820;4.336;2022-11-15T03:28:57;12.50;99.90
23520;DHT22;11936;50.820;4.336;2022-11-15T03:31:28;12.50;99.90
23520;DHT22;11936;50.820;4.336;2022-11-15T03:36:44;12.60;99.90
23520;DHT22;11936;50.820;4.336;2022-11-15T03:39:13;12.50;99.90
23520;DHT22;11936;50.820;4.336;2022-11-15T03:48:33;12.40;99.90
23520;DHT22;11936;50.820;4.336;2022-11-15T03:50:26;12.30;99.90
23520;DHT22;11936;50.820;4.336;2022-11-15T03:52:54;12.40;99.90
23520;DHT22;11936;50.820;4.336;2022-11-15T03:55:21;12.40;99.90
23520;DHT22;11936;50.820;4.336;2022-11-15T03:57:50;12.30;99.90
23520;DHT22;11936;50.820;4.336;2022-11-15T04:00:17;12.20;99.90
23520;DHT22;11936;50.820;4.336;2022-11-15T04:02:42;12.30;99.90
23520;DHT22;11936;50.820;4.336;2022-11-15T04:05:08;12.40;99.90
23520;DHT22;11936;50.820;4.336;2022-11-15T04:07:34;12.30;99.90
23520;DHT22;11936;50.820;4.336;2022-11-15T04:09:59;12.20;99.90
23520;DHT22;11936;50.820;4.336;2022-11-15T04:12:38;12.10;99.90
23520;DHT22;11936;50.820;4.336;2022-11-15T04:20:02;12.20;99.90
23520;DHT22;11936;50.820;4.336;2022-11-15T04:22:46;12.30;99.90
23520;DHT22;11936;50.820;4.336;2022-11-15T04:25:30;12.20;99.90
23520;DHT22;11936;50.820;4.336;2022-11-15T04:27:55;12.20;99.90
23520;DHT22;11936;50.820;4.336;2022-11-15T04:30:21;12.20;99.90
23520;DHT22;11936;50.820;4.336;2022-11-15T04:32:47;12.30;99.90
23520;DHT22;11936;50.820;4.336;2022-11-15T04:35:12;12.20;99.90
23520;DHT22;11936;50.820;4.336;2022-11-15T04:37:38;12.10;99.90
23520;DHT22;11936;50.820;4.336;2022-11-15T04:40:03;12.10;99.90
23520;DHT22;11936;50.820;4.336;2022-11-15T04:42:29;12.10;99.90
23520;DHT22;11936;50.820;4.336;2022-11-15T04:44:55;12.20;99.90
23520;DHT22;11936;50.820;4.336;2022-11-15T04:47:21;12.10;99.90
23520;DHT22;11936;50.820;4.336;2022-11-15T04:49:46;12.20;99.90
23520;DHT22;11936;50.820;4.336;2022-11-15T04:52:12;12.20;99.90
23520;DHT22;11936;50.820;4.336;2022-11-15T04:54:37;12.20;99.90
23520;DHT22;11936;50.820;4.336;2022-11-15T04:57:03;12.10;99.90
23520;DHT22;11936;50.820;4.336;2022-11-15T04:59:29;12.10;99.90
23520;DHT22;11936;50.820;4.336;2022-11-15T05:01:54;12.00;99.90
23520;DHT22;11936;50.820;4.336;2022-11-15T05:04:20;11.90;99.90
23520;DHT22;11936;50.820;4.336;2022-11-15T05:06:47;11.90;99.90
23520;DHT22;11936;50.820;4.336;2022-11-15T05:09:13;12.00;99.90
23520;DHT22;11936;50.820;4.336;2022-11-15T05:11:39;11.90;99.90
23520;DHT22;11936;50.820;4.336;2022-11-15T05:14:05;12.00;99.90
23520;DHT22;11936;50.820;4.336;2022-11-15T05:16:30;12.00;99.90
23520;DHT22;11936;50.820;4.336;2022-11-15T05:18:56;12.10;99.90
23520;DHT22;11936;50.820;4.336;2022-11-15T05:21:21;12.00;99.90
23520;DHT22;11936;50.820;4.336;2022-11-15T05:23:47;11.90;99.90
23520;DHT22;11936;50.820;4.336;2022-11-15T05:26:15;12.00;99.90
23520;DHT22;11936;50.820;4.336;2022-11-15T05:28:41;12.00;99.90
23520;DHT22;11936;50.820;4.336;2022-11-15T05:31:13;11.90;99.90
23520;DHT22;11936;50.820;4.336;2022-11-15T05:33:40;11.90;99.90
23520;DHT22;11936;50.820;4.336;2022-11-15T05:36:14;11.90;99.90
23520;DHT22;11936;50.820;4.336;2022-11-15T05:38:42;11.90;99.90
23520;DHT22;11936;50.820;4.336;2022-11-15T05:41:08;11.70;99.90
23520;DHT22;11936;50.820;4.336;2022-11-15T05:43:36;11.60;99.90
23520;DHT22;11936;50.820;4.336;2022-11-15T05:46:04;11.70;99.90
23520;DHT22;11936;50.820;4.336;2022-11-15T05:48:31;11.60;99.90
23520;DHT22;11936;50.820;4.336;2022-11-15T05:50:57;11.60;99.90
23520;DHT22;11936;50.820;4.336;2022-11-15T05:53:25;11.60;99.90
23520;DHT22;11936;50.820;4.336;2022-11-15T05:55:51;11.50;99.90
23520;DHT22;11936;50.820;4.336;2022-11-15T05:58:17;11.60;99.90
23520;DHT22;11936;50.820;4.336;2022-11-15T06:00:43;11.60;99.90
23520;DHT22;11936;50.820;4.336;2022-11-15T06:03:09;11.60;99.90
23520;DHT22;11936;50.820;4.336;2022-11-15T06:05:35;11.70;99.90
23520;DHT22;11936;50.820;4.336;2022-11-15T06:08:01;11.70;99.90
23520;DHT22;11936;50.820;4.336;2022-11-15T06:10:26;11.60;99.90
23520;DHT22;11936;50.820;4.336;2022-11-15T06:13:02;11.60;99.90
23520;DHT22;11936;50.820;4.336;2022-11-15T06:15:28;11.50;99.90
23520;DHT22;11936;50.820;4.336;2022-11-15T06:17:56;11.50;99.90
23520;DHT22;11936;50.820;4.336;2022-11-15T06:20:26;11.50;99.90
23520;DHT22;11936;50.820;4.336;2022-11-15T06:22:59;11.50;99.90
23520;DHT22;11936;50.820;4.336;2022-11-15T06:25:26;11.40;99.90
23520;DHT22;11936;50.820;4.336;2022-11-15T06:27:53;11.50;99.90
23520;DHT22;11936;50.820;4.336;2022-11-15T06:30:19;11.50;99.90
23520;DHT22;11936;50.820;4.336;2022-11-15T06:32:45;11.50;99.90
23520;DHT22;11936;50.820;4.336;2022-11-15T06:35:11;11.40;99.90
23520;DHT22;11936;50.820;4.336;2022-11-15T06:37:36;11.40;99.90
23520;DHT22;11936;50.820;4.336;2022-11-15T06:40:02;11.40;99.90
23520;DHT22;11936;50.820;4.336;2022-11-15T06:42:28;11.40;99.90
23520;DHT22;11936;50.820;4.336;2022-11-15T06:44:53;11.40;99.90
23520;DHT22;11936;50.820;4.336;2022-11-15T06:47:19;11.40;99.90
23520;DHT22;11936;50.820;4.336;2022-11-15T06:49:44;11.30;99.90
23520;DHT22;11936;50.820;4.336;2022-11-15T06:52:10;11.30;99.90
23520;DHT22;11936;50.820;4.336;2022-11-15T06:54:35;11.30;99.90
23520;DHT22;11936;50.820;4.336;2022-11-15T06:57:01;11.30;99.90
23520;DHT22;11936;50.820;4.336;2022-11-15T06:59:26;11.30;99.90
23520;DHT22;11936;50.820;4.336;2022-11-15T07:01:53;11.40;99.90
23520;DHT22;11936;50.820;4.336;2022-11-15T07:04:19;11.30;99.90
23520;DHT22;11936;50.820;4.336;2022-11-15T07:06:49;11.30;99.90
23520;DHT22;11936;50.820;4.336;2022-11-15T07:09:14;11.30;99.90
23520;DHT22;11936;50.820;4.336;2022-11-15T07:11:40;11.20;99.90
23520;DHT22;11936;50.820;4.336;2022-11-15T07:14:05;11.20;99.90
23520;DHT22;11936;50.820;4.336;2022-11-15T07:16:31;11.20;99.90
23520;DHT22;11936;50.820;4.336;2022-11-15T07:18:57;11.30;99.90
23520;DHT22;11936;50.820;4.336;2022-11-15T07:21:22;11.20;99.90
23520;DHT22;11936;50.820;4.336;2022-11-15T07:23:49;11.30;99.90
23520;DHT22;11936;50.820;4.336;2022-11-15T07:26:14;11.20;99.90
23520;DHT22;11936;50.820;4.336;2022-11-15T07:28:40;11.10;99.90
23520;DHT22;11936;50.820;4.336;2022-11-15T07:31:07;11.20;99.90
23520;DHT22;11936;50.820;4.336;2022-11-15T07:33:33;11.20;99.90
23520;DHT22;11936;50.820;4.336;2022-11-15T07:36:00;11.20;99.90
23520;DHT22;11936;50.820;4.336;2022-11-15T07:38:27;11.20;99.90
23520;DHT22;11936;50.820;4.336;2022-11-15T07:41:01;11.30;99.90
23520;DHT22;11936;50.820;4.336;2022-11-15T07:43:27;11.40;99.90
23520;DHT22;11936;50.820;4.336;2022-11-15T07:45:53;11.20;99.90
23520;DHT22;11936;50.820;4.336;2022-11-15T07:48:19;11.30;99.90
23520;DHT22;11936;50.820;4.336;2022-11-15T07:50:44;11.20;99.90
23520;DHT22;11936;50.820;4.336;2022-11-15T07:53:10;11.20;99.90
23520;DHT22;11936;50.820;4.336;2022-11-15T07:55:37;11.30;99.90
23520;DHT22;11936;50.820;4.336;2022-11-15T07:58:05;11.30;99.90
23520;DHT22;11936;50.820;4.336;2022-11-15T08:00:31;11.20;99.90
23520;DHT22;11936;50.820;4.336;2022-11-15T08:03:17;11.20;99.90
23520;DHT22;11936;50.820;4.336;2022-11-15T08:05:43;11.20;99.90
23520;DHT22;11936;50.820;4.336;2022-11-15T08:08:10;11.10;99.90
23520;DHT22;11936;50.820;4.336;2022-11-15T08:10:36;11.20;99.90
23520;DHT22;11936;50.820;4.336;2022-11-15T08:13:07;11.20;99.90
23520;DHT22;11936;50.820;4.336;2022-11-15T08:15:34;11.20;99.90
23520;DHT22;11936;50.820;4.336;2022-11-15T08:18:03;11.20;99.90
23520;DHT22;11936;50.820;4.336;2022-11-15T08:20:29;11.20;99.90
23520;DHT22;11936;50.820;4.336;2022-11-15T08:22:59;11.20;99.90
23520;DHT22;11936;50.820;4.336;2022-11-15T08:25:26;11.20;99.90
23520;DHT22;11936;50.820;4.336;2022-11-15T08:27:53;11.10;99.90
23520;DHT22;11936;50.820;4.336;2022-11-15T08:30:19;11.20;99.90
23520;DHT22;11936;50.820;4.336;2022-11-15T08:32:44;11.20;99.90
23520;DHT22;11936;50.820;4.336;2022-11-15T08:35:11;11.10;99.90
23520;DHT22;11936;50.820;4.336;2022-11-15T08:37:36;11.10;99.90
23520;DHT22;11936;50.820;4.336;2022-11-15T08:40:03;11.10;99.90
23520;DHT22;11936;50.820;4.336;2022-11-15T08:42:29;11.20;99.90
23520;DHT22;11936;50.820;4.336;2022-11-15T08:44:54;11.20;99.90
23520;DHT22;11936;50.820;4.336;2022-11-15T08:47:20;11.20;99.90
23520;DHT22;11936;50.820;4.336;2022-11-15T08:49:45;11.20;99.90
23520;DHT22;11936;50.820;4.336;2022-11-15T08:52:11;11.20;99.90
23520;DHT22;11936;50.820;4.336;2022-11-15T08:54:36;11.30;99.90
23520;DHT22;11936;50.820;4.336;2022-11-15T08:57:02;11.40;99.90
23520;DHT22;11936;50.820;4.336;2022-11-15T08:59:28;11.40;99.90
23520;DHT22;11936;50.820;4.336;2022-11-15T09:01:53;11.50;99.90
23520;DHT22;11936;50.820;4.336;2022-11-15T09:04:19;11.50;99.90
23520;DHT22;11936;50.820;4.336;2022-11-15T09:06:45;11.50;99.90
23520;DHT22;11936;50.820;4.336;2022-11-15T09:09:10;11.50;99.90
23520;DHT22;11936;50.820;4.336;2022-11-15T09:11:36;11.40;99.90
23520;DHT22;11936;50.820;4.336;2022-11-15T09:14:01;11.40;99.90
23520;DHT22;11936;50.820;4.336;2022-11-15T09:16:27;11.50;99.90
23520;DHT22;11936;50.820;4.336;2022-11-15T09:18:53;11.50;99.90
23520;DHT22;11936;50.820;4.336;2022-11-15T09:21:20;11.60;99.90
23520;DHT22;11936;50.820;4.336;2022-11-15T09:23:45;11.60;99.90
23520;DHT22;11936;50.820;4.336;2022-11-15T09:26:11;11.70;99.90
23520;DHT22;11936;50.820;4.336;2022-11-15T09:28:37;11.70;99.90
23520;DHT22;11936;50.820;4.336;2022-11-15T09:31:05;11.80;99.90
23520;DHT22;11936;50.820;4.336;2022-11-15T09:33:31;11.80;99.90
23520;DHT22;11936;50.820;4.336;2022-11-15T09:36:01;11.80;99.90
23520;DHT22;11936;50.820;4.336;2022-11-15T09:38:27;11.70;99.90
23520;DHT22;11936;50.820;4.336;2022-11-15T09:46:32;11.90;99.90
23520;DHT22;11936;50.820;4.336;2022-11-15T09:49:01;12.00;99.90
23520;DHT22;11936;50.820;4.336;2022-11-15T09:51:30;12.10;99.90
23520;DHT22;11936;50.820;4.336;2022-11-15T09:56:38;12.10;99.90
23520;DHT22;11936;50.820;4.336;2022-11-15T10:01:53;12.10;99.90
23520;DHT22;11936;50.820;4.336;2022-11-15T10:04:23;12.10;99.90
23520;DHT22;11936;50.820;4.336;2022-11-15T10:07:19;12.10;99.90
23520;DHT22;11936;50.820;4.336;2022-11-15T10:10:07;12.00;99.90
23520;DHT22;11936;50.820;4.336;2022-11-15T10:12:34;12.10;99.90
23520;DHT22;11936;50.820;4.336;2022-11-15T10:15:13;12.20;99.90
23520;DHT22;11936;50.820;4.336;2022-11-15T10:20:22;12.30;99.90
23520;DHT22;11936;50.820;4.336;2022-11-15T10:23:01;12.30;99.90
23520;DHT22;11936;50.820;4.336;2022-11-15T10:25:32;12.30;99.90
23520;DHT22;11936;50.820;4.336;2022-11-15T10:30:47;12.50;99.90
23520;DHT22;11936;50.820;4.336;2022-11-15T10:33:20;12.50;99.90
23520;DHT22;11936;50.820;4.336;2022-11-15T10:35:47;12.50;99.90
23520;DHT22;11936;50.820;4.336;2022-11-15T10:38:13;12.60;99.90
23520;DHT22;11936;50.820;4.336;2022-11-15T10:40:40;12.60;99.90
23520;DHT22;11936;50.820;4.336;2022-11-15T10:45:35;12.70;99.90
23520;DHT22;11936;50.820;4.336;2022-11-15T10:50:46;12.80;99.90
23520;DHT22;11936;50.820;4.336;2022-11-15T10:53:22;12.80;99.90
23520;DHT22;11936;50.820;4.336;2022-11-15T10:55:51;12.80;99.90
23520;DHT22;11936;50.820;4.336;2022-11-15T10:58:22;12.80;99.90
23520;DHT22;11936;50.820;4.336;2022-11-15T11:00:52;12.80;99.90
23520;DHT22;11936;50.820;4.336;2022-11-15T11:03:28;12.80;99.90
23520;DHT22;11936;50.820;4.336;2022-11-15T11:08:31;12.90;99.90
23520;DHT22;11936;50.820;4.336;2022-11-15T11:10:58;12.90;99.90
23520;DHT22;11936;50.820;4.336;2022-11-15T11:13:26;12.90;99.90
23520;DHT22;11936;50.820;4.336;2022-11-15T11:21:13;13.00;99.90
23520;DHT22;11936;50.820;4.336;2022-11-15T11:23:52;13.00;99.90
23520;DHT22;11936;50.820;4.336;2022-11-15T11:31:48;13.00;99.90
23520;DHT22;11936;50.820;4.336;2022-11-15T11:36:56;13.10;99.90
23520;DHT22;11936;50.820;4.336;2022-11-15T11:50:36;13.20;99.90
23520;DHT22;11936;50.820;4.336;2022-11-15T11:55:47;13.30;99.90
23520;DHT22;11936;50.820;4.336;2022-11-15T11:58:36;13.50;99.90
23520;DHT22;11936;50.820;4.336;2022-11-15T12:01:35;13.50;99.90
23520;DHT22;11936;50.820;4.336;2022-11-15T12:04:30;13.50;99.90
23520;DHT22;11936;50.820;4.336;2022-11-15T12:07:08;13.50;99.90
23520;DHT22;11936;50.820;4.336;2022-11-15T12:09:44;13.30;99.90
23520;DHT22;11936;50.820;4.336;2022-11-15T12:12:32;13.40;99.90
23520;DHT22;11936;50.820;4.336;2022-11-15T12:15:04;13.50;99.90
23520;DHT22;11936;50.820;4.336;2022-11-15T12:17:35;13.60;99.90
23520;DHT22;11936;50.820;4.336;2022-11-15T12:20:05;13.60;99.90
23520;DHT22;11936;50.820;4.336;2022-11-15T12:22:43;13.70;99.90
23520;DHT22;11936;50.820;4.336;2022-11-15T12:27:55;13.60;99.90
23520;DHT22;11936;50.820;4.336;2022-11-15T12:30:23;13.50;99.90
23520;DHT22;11936;50.820;4.336;2022-11-15T12:32:52;13.50;99.90
23520;DHT22;11936;50.820;4.336;2022-11-15T12:35:41;13.60;99.90
23520;DHT22;11936;50.820;4.336;2022-11-15T12:38:11;13.60;99.90
23520;DHT22;11936;50.820;4.336;2022-11-15T12:43:40;13.70;99.90
23520;DHT22;11936;50.820;4.336;2022-11-15T12:46:12;13.70;99.90
23520;DHT22;11936;50.820;4.336;2022-11-15T12:51:04;13.80;99.90
23520;DHT22;11936;50.820;4.336;2022-11-15T12:53:31;13.90;99.90
23520;DHT22;11936;50.820;4.336;2022-11-15T13:07:04;14.00;99.90
23520;DHT22;11936;50.820;4.336;2022-11-15T13:17:54;14.00;99.90
23520;DHT22;11936;50.820;4.336;2022-11-15T13:20:31;14.00;99.90
23520;DHT22;11936;50.820;4.336;2022-11-15T13:23:11;14.00;99.90
23520;DHT22;11936;50.820;4.336;2022-11-15T13:31:03;14.20;99.90
23520;DHT22;11936;50.820;4.336;2022-11-15T13:33:39;14.20;99.90
23520;DHT22;11936;50.820;4.336;2022-11-15T13:36:14;14.10;99.90
23520;DHT22;11936;50.820;4.336;2022-11-15T13:38:41;13.90;99.90
23520;DHT22;11936;50.820;4.336;2022-11-15T13:43:41;13.90;99.90
23520;DHT22;11936;50.820;4.336;2022-11-15T13:46:10;13.80;99.90
23520;DHT22;11936;50.820;4.336;2022-11-15T13:48:36;13.80;99.90
23520;DHT22;11936;50.820;4.336;2022-11-15T13:51:14;13.90;99.90
23520;DHT22;11936;50.820;4.336;2022-11-15T13:53:43;13.80;99.90
23520;DHT22;11936;50.820;4.336;2022-11-15T13:56:12;13.80;99.90
23520;DHT22;11936;50.820;4.336;2022-11-15T13:58:38;13.90;99.90
23520;DHT22;11936;50.820;4.336;2022-11-15T14:01:05;13.90;99.90
23520;DHT22;11936;50.820;4.336;2022-11-15T14:03:46;13.80;99.90
23520;DHT22;11936;50.820;4.336;2022-11-15T14:06:16;13.80;99.90
23520;DHT22;11936;50.820;4.336;2022-11-15T14:11:34;13.90;99.90
23520;DHT22;11936;50.820;4.336;2022-11-15T14:16:46;13.90;99.90
23520;DHT22;11936;50.820;4.336;2022-11-15T14:19:33;13.80;99.90
23520;DHT22;11936;50.820;4.336;2022-11-15T14:22:24;13.70;99.90
23520;DHT22;11936;50.820;4.336;2022-11-15T14:25:18;13.60;99.90
23520;DHT22;11936;50.820;4.336;2022-11-15T14:28:27;13.60;99.90
23520;DHT22;11936;50.820;4.336;2022-11-15T14:30:56;13.60;99.90
23520;DHT22;11936;50.820;4.336;2022-11-15T14:33:34;13.60;99.90
23520;DHT22;11936;50.820;4.336;2022-11-15T14:36:13;13.60;99.90
23520;DHT22;11936;50.820;4.336;2022-11-15T14:38:40;13.70;99.90
23520;DHT22;11936;50.820;4.336;2022-11-15T14:41:24;13.70;99.90
23520;DHT22;11936;50.820;4.336;2022-11-15T14:43:51;13.50;99.90
23520;DHT22;11936;50.820;4.336;2022-11-15T14:46:17;13.60;99.90
23520;DHT22;11936;50.820;4.336;2022-11-15T14:48:43;13.60;99.90
23520;DHT22;11936;50.820;4.336;2022-11-15T14:51:17;13.60;99.90
23520;DHT22;11936;50.820;4.336;2022-11-15T14:53:44;13.50;99.90
23520;DHT22;11936;50.820;4.336;2022-11-15T14:56:10;13.50;99.90
23520;DHT22;11936;50.820;4.336;2022-11-15T14:58:36;13.50;99.90
23520;DHT22;11936;50.820;4.336;2022-11-15T15:01:09;13.50;99.90
23520;DHT22;11936;50.820;4.336;2022-11-15T15:03:36;13.50;99.90
23520;DHT22;11936;50.820;4.336;2022-11-15T15:06:02;13.50;99.90
23520;DHT22;11936;50.820;4.336;2022-11-15T15:08:27;13.40;99.90
23520;DHT22;11936;50.820;4.336;2022-11-15T15:10:53;13.50;99.90
23520;DHT22;11936;50.820;4.336;2022-11-15T15:13:21;13.60;99.90
23520;DHT22;11936;50.820;4.336;2022-11-15T15:15:48;13.60;99.90
23520;DHT22;11936;50.820;4.336;2022-11-15T15:18:14;13.50;99.90
23520;DHT22;11936;50.820;4.336;2022-11-15T15:20:41;13.60;99.90
23520;DHT22;11936;50.820;4.336;2022-11-15T15:23:18;13.40;99.90
23520;DHT22;11936;50.820;4.336;2022-11-15T15:25:45;13.40;99.90
23520;DHT22;11936;50.820;4.336;2022-11-15T15:28:12;13.30;99.90
23520;DHT22;11936;50.820;4.336;2022-11-15T15:30:38;13.40;99.90
23520;DHT22;11936;50.820;4.336;2022-11-15T15:33:03;13.40;99.90
23520;DHT22;11936;50.820;4.336;2022-11-15T15:35:31;13.30;99.90
23520;DHT22;11936;50.820;4.336;2022-11-15T15:37:57;13.40;99.90
23520;DHT22;11936;50.820;4.336;2022-11-15T15:40:25;13.30;99.90
23520;DHT22;11936;50.820;4.336;2022-11-15T15:42:51;13.40;99.90
23520;DHT22;11936;50.820;4.336;2022-11-15T15:45:17;13.40;99.90
23520;DHT22;11936;50.820;4.336;2022-11-15T15:47:44;13.40;99.90
23520;DHT22;11936;50.820;4.336;2022-11-15T15:50:25;13.40;99.90
23520;DHT22;11936;50.820;4.336;2022-11-15T15:52:52;13.40;99.90
23520;DHT22;11936;50.820;4.336;2022-11-15T15:55:18;13.30;99.90
23520;DHT22;11936;50.820;4.336;2022-11-15T15:57:44;13.30;99.90
23520;DHT22;11936;50.820;4.336;2022-11-15T16:00:10;13.40;99.90
23520;DHT22;11936;50.820;4.336;2022-11-15T16:02:36;13.30;99.90
23520;DHT22;11936;50.820;4.336;2022-11-15T16:05:02;13.30;99.90
23520;DHT22;11936;50.820;4.336;2022-11-15T16:07:27;13.30;99.90
23520;DHT22;11936;50.820;4.336;2022-11-15T16:09:55;13.20;99.90
23520;DHT22;11936;50.820;4.336;2022-11-15T16:12:27;13.20;99.90
23520;DHT22;11936;50.820;4.336;2022-11-15T16:14:53;13.20;99.90
23520;DHT22;11936;50.820;4.336;2022-11-15T16:17:21;13.20;99.90
23520;DHT22;11936;50.820;4.336;2022-11-15T16:19:47;13.30;99.90
23520;DHT22;11936;50.820;4.336;2022-11-15T16:22:13;13.40;99.90
23520;DHT22;11936;50.820;4.336;2022-11-15T16:24:38;13.30;99.90
23520;DHT22;11936;50.820;4.336;2022-11-15T16:27:04;13.30;99.90
23520;DHT22;11936;50.820;4.336;2022-11-15T16:29:29;13.30;99.90
23520;DHT22;11936;50.820;4.336;2022-11-15T16:31:55;13.30;99.90
23520;DHT22;11936;50.820;4.336;2022-11-15T16:34:21;13.30;99.90
23520;DHT22;11936;50.820;4.336;2022-11-15T16:36:47;13.30;99.90
23520;DHT22;11936;50.820;4.336;2022-11-15T16:39:13;13.30;99.90
23520;DHT22;11936;50.820;4.336;2022-11-15T16:41:40;13.30;99.90
23520;DHT22;11936;50.820;4.336;2022-11-15T16:44:07;13.40;99.90
23520;DHT22;11936;50.820;4.336;2022-11-15T16:46:32;13.40;99.90
23520;DHT22;11936;50.820;4.336;2022-11-15T16:48:58;13.30;99.90
23520;DHT22;11936;50.820;4.336;2022-11-15T16:51:23;13.40;99.90
23520;DHT22;11936;50.820;4.336;2022-11-15T16:53:49;13.40;99.90
23520;DHT22;11936;50.820;4.336;2022-11-15T16:56:19;13.40;99.90
23520;DHT22;11936;50.820;4.336;2022-11-15T16:58:45;13.30;99.90
23520;DHT22;11936;50.820;4.336;2022-11-15T17:01:19;13.30;99.90
23520;DHT22;11936;50.820;4.336;2022-11-15T17:03:46;13.40;99.90
23520;DHT22;11936;50.820;4.336;2022-11-15T17:06:13;13.30;99.90
23520;DHT22;11936;50.820;4.336;2022-11-15T17:08:39;13.40;99.90
23520;DHT22;11936;50.820;4.336;2022-11-15T17:11:05;13.30;99.90
23520;DHT22;11936;50.820;4.336;2022-11-15T17:13:31;13.30;99.90
23520;DHT22;11936;50.820;4.336;2022-11-15T17:16:10;13.20;99.90
23520;DHT22;11936;50.820;4.336;2022-11-15T17:18:36;13.30;99.90
23520;DHT22;11936;50.820;4.336;2022-11-15T17:21:05;13.30;99.90
23520;DHT22;11936;50.820;4.336;2022-11-15T17:23:32;13.30;99.90
23520;DHT22;11936;50.820;4.336;2022-11-15T17:26:03;13.40;99.90
23520;DHT22;11936;50.820;4.336;2022-11-15T17:28:33;13.40;99.90
23520;DHT22;11936;50.820;4.336;2022-11-15T17:30:59;13.40;99.90
23520;DHT22;11936;50.820;4.336;2022-11-15T17:33:25;13.30;99.90
23520;DHT22;11936;50.820;4.336;2022-11-15T17:35:56;13.40;99.90
23520;DHT22;11936;50.820;4.336;2022-11-15T17:38:22;13.40;99.90
23520;DHT22;11936;50.820;4.336;2022-11-15T17:40:47;13.30;99.90
23520;DHT22;11936;50.820;4.336;2022-11-15T17:43:13;13.30;99.90
23520;DHT22;11936;50.820;4.336;2022-11-15T17:45:41;13.20;99.90
23520;DHT22;11936;50.820;4.336;2022-11-15T17:48:07;13.30;99.90
23520;DHT22;11936;50.820;4.336;2022-11-15T17:50:32;13.40;99.90
23520;DHT22;11936;50.820;4.336;2022-11-15T17:52:59;13.40;99.90
23520;DHT22;11936;50.820;4.336;2022-11-15T17:55:24;13.30;99.90